createdAt,value
2022-11-10T03:59:25.969Z,55.33
2022-11-10T04:00:25.424Z,55.33
2022-11-10T04:01:24.891Z,55.52
2022-11-10T04:02:24.954Z,55.62
2022-11-10T04:03:25.349Z,55.13
2022-11-10T04:04:25.488Z,55.43
2022-11-10T04:05:25.403Z,55.52
2022-11-10T04:06:25.416Z,55.81
2022-11-10T04:07:24.931Z,55.52
2022-11-10T04:08:25.428Z,55.33
2022-11-10T04:09:24.916Z,55.43
2022-11-10T04:10:25.405Z,55.52
2022-11-10T04:11:24.885Z,55.43
2022-11-10T04:12:25.294Z,55.81
2022-11-10T04:13:24.027Z,55.45
2022-11-10T04:14:25.150Z,55.74
2022-11-10T04:15:23.716Z,55.26
2022-11-10T04:16:23.734Z,55.45
2022-11-10T04:17:25.952Z,55.83
2022-11-10T04:18:24.555Z,55.93
2022-11-10T04:19:23.759Z,55.83
2022-11-10T04:20:23.687Z,55.83
2022-11-10T04:21:23.681Z,55.74
2022-11-10T04:22:24.947Z,55.83
2022-11-10T04:23:26.061Z,56.12
2022-11-10T04:24:23.741Z,55.93
2022-11-10T04:25:23.684Z,55.74
2022-11-10T04:26:23.838Z,56.41
2022-11-10T04:27:24.714Z,56.51
2022-11-10T04:28:25.432Z,55.83
2022-11-10T04:29:25.088Z,55.83
2022-11-10T04:30:24.709Z,55.83
2022-11-10T04:31:24.649Z,55.74
2022-11-10T04:32:25.763Z,56.22
2022-11-10T04:33:25.075Z,55.93
2022-11-10T04:34:25.453Z,55.93
2022-11-10T04:35:25.473Z,56.12
2022-11-10T04:36:25.450Z,55.93
2022-11-10T04:37:25.429Z,56.32
2022-11-10T04:38:24.975Z,55.55
2022-11-10T04:39:25.443Z,56.22
2022-11-10T04:40:25.422Z,55.74
2022-11-10T04:41:25.436Z,56.03
2022-11-10T04:42:25.462Z,56.03
2022-11-10T04:43:25.389Z,56.03
2022-11-10T04:44:24.600Z,55.83
2022-11-10T04:45:24.602Z,55.83
2022-11-10T04:46:24.581Z,56.22
2022-11-10T04:47:25.471Z,55.74
2022-11-10T04:48:25.963Z,55.74
2022-11-10T04:49:25.959Z,56.25
2022-11-10T04:50:23.606Z,56.15
2022-11-10T04:51:25.529Z,55.57
2022-11-10T04:52:23.590Z,55.26
2022-11-10T04:53:23.973Z,55.87
2022-11-10T04:54:25.001Z,55.48
2022-11-10T04:55:23.549Z,55.77
2022-11-10T04:56:23.551Z,55.29
2022-11-10T04:57:23.554Z,55.77
2022-11-10T04:58:24.961Z,55.38
2022-11-10T04:59:24.539Z,55.67
2022-11-10T05:00:24.811Z,55.48
2022-11-10T05:01:25.524Z,55.57
2022-11-10T05:02:23.520Z,55.57
2022-11-10T05:03:25.564Z,56.05
2022-11-10T05:04:26.091Z,55.96
2022-11-10T05:05:24.526Z,55.87
2022-11-10T05:06:24.963Z,55.77
2022-11-10T05:07:26.467Z,55.19
2022-11-10T05:08:24.977Z,55.57
2022-11-10T05:09:25.007Z,55.48
2022-11-10T05:10:25.488Z,55.48
2022-11-10T05:11:24.969Z,55.57
2022-11-10T05:12:25.517Z,55.77
2022-11-10T05:13:25.594Z,55.57
2022-11-10T05:14:25.589Z,55.57
2022-11-10T05:15:25.452Z,55.67
2022-11-10T05:16:24.982Z,55.48
2022-11-10T05:17:24.474Z,55.87
2022-11-10T05:18:24.965Z,55.48
2022-11-10T05:19:25.522Z,55.38
2022-11-10T05:20:24.976Z,55.57
2022-11-10T05:21:25.003Z,55.77
2022-11-10T05:22:25.013Z,55.57
2022-11-10T05:23:24.590Z,55.67
2022-11-10T05:24:25.109Z,55.67
2022-11-10T05:25:25.009Z,55.48
2022-11-10T05:26:24.504Z,55.29
2022-11-10T05:27:24.451Z,55.57
2022-11-10T05:28:24.498Z,55.77
2022-11-10T05:29:24.551Z,55.48
2022-11-10T05:30:25.068Z,55.38
2022-11-10T05:31:24.982Z,55.67
2022-11-10T05:32:25.005Z,55.38
2022-11-10T05:33:25.384Z,55.67
2022-11-10T05:34:25.089Z,55.57
2022-11-10T05:35:25.005Z,55.57
2022-11-10T05:36:25.082Z,55.96
2022-11-10T05:37:24.990Z,55.48
2022-11-10T05:38:24.990Z,55.38
2022-11-10T05:39:24.392Z,55.38
2022-11-10T05:40:25.055Z,55.48
2022-11-10T05:41:24.380Z,55.29
2022-11-10T05:42:24.981Z,55.57
2022-11-10T05:43:24.763Z,55.38
2022-11-10T05:44:25.027Z,55.77
2022-11-10T05:45:25.007Z,55.77
2022-11-10T05:46:25.004Z,55.77
2022-11-10T05:47:23.391Z,55.67
2022-11-10T05:48:25.202Z,55.29
2022-11-10T05:49:25.213Z,55.67
2022-11-10T05:50:25.031Z,55.67
2022-11-10T05:51:25.052Z,55.67
2022-11-10T05:52:25.013Z,55.48
2022-11-10T05:53:24.732Z,55.29
2022-11-10T05:54:25.004Z,55.29
2022-11-10T05:55:25.029Z,55.57
2022-11-10T05:56:24.994Z,55.67
2022-11-10T05:57:24.388Z,55.57
2022-11-10T05:58:24.589Z,56.05
2022-11-10T05:59:23.355Z,55.38
2022-11-10T06:00:23.321Z,55.96
2022-11-10T06:01:25.168Z,55.38
2022-11-10T06:02:24.997Z,55.38
2022-11-10T06:03:24.882Z,55.38
2022-11-10T06:04:25.006Z,55.96
2022-11-10T06:05:30.676Z,55.38
2022-11-10T06:06:25.127Z,55.77
2022-11-10T06:07:24.449Z,55.77
2022-11-10T06:08:25.124Z,55.96
2022-11-10T06:09:25.009Z,55.38
2022-11-10T06:10:24.410Z,55.79
2022-11-10T06:11:25.030Z,55.38
2022-11-10T06:12:25.027Z,55.48
2022-11-10T06:13:25.018Z,55.60
2022-11-10T06:14:24.423Z,55.41
2022-11-10T06:15:24.304Z,55.89
2022-11-10T06:16:25.150Z,55.67
2022-11-10T06:17:23.281Z,55.38
2022-11-10T06:18:24.905Z,55.70
2022-11-10T06:19:23.327Z,55.79
2022-11-10T06:20:24.247Z,55.31
2022-11-10T06:21:24.888Z,55.41
2022-11-10T06:27:36.236Z,55.67
2022-11-10T06:28:36.006Z,55.31
2022-11-10T06:29:37.766Z,55.51
2022-11-10T06:30:35.256Z,55.67
2022-11-10T06:31:37.406Z,55.57
2022-11-10T06:32:35.252Z,55.67
2022-11-10T06:33:35.264Z,55.41
2022-11-10T06:34:35.244Z,55.51
2022-11-10T06:35:36.266Z,55.99
2022-11-10T06:36:37.473Z,56.18
2022-11-10T06:37:37.270Z,55.41
2022-11-10T06:38:35.229Z,55.60
2022-11-10T06:39:36.798Z,55.70
2022-11-10T06:40:35.243Z,55.79
2022-11-10T06:41:36.841Z,55.51
2022-11-10T06:42:36.829Z,55.51
2022-11-10T06:43:35.206Z,55.79
2022-11-10T06:44:42.020Z,55.51
2022-11-10T06:45:35.357Z,55.70
2022-11-10T06:46:42.177Z,55.41
2022-11-10T06:47:35.766Z,55.70
2022-11-10T06:48:42.846Z,55.79
2022-11-10T06:49:35.181Z,55.41
2022-11-10T06:50:36.793Z,56.09
2022-11-10T06:51:35.331Z,55.79
2022-11-10T06:52:35.717Z,55.31
2022-11-10T06:53:35.296Z,55.31
2022-11-10T06:54:35.792Z,56.18
2022-11-10T06:55:38.030Z,55.79
2022-11-10T06:56:35.483Z,55.60
2022-11-10T06:57:36.253Z,55.79
2022-11-10T06:58:36.835Z,55.31
2022-11-10T06:59:35.199Z,55.70
2022-11-10T07:00:35.145Z,55.89
2022-11-10T07:01:35.321Z,55.41
2022-11-10T07:02:35.133Z,55.31
2022-11-10T07:04:05.033Z,55.60
2022-11-10T07:04:35.254Z,54.83
2022-11-10T07:05:35.094Z,55.41
2022-11-10T07:06:36.934Z,55.02
2022-11-10T07:08:35.105Z,55.22
2022-11-10T07:09:36.816Z,55.31
2022-11-10T07:10:35.148Z,55.02
2022-11-10T07:11:36.836Z,55.51
2022-11-10T07:12:36.792Z,55.51
2022-11-10T07:13:35.078Z,55.60
2022-11-10T07:14:36.868Z,55.51
2022-11-10T07:15:36.782Z,54.93
2022-11-10T07:16:36.811Z,54.83
2022-11-10T07:17:36.788Z,55.89
2022-11-10T07:18:36.800Z,55.79
2022-11-10T07:19:40.638Z,54.93
2022-11-10T07:20:36.840Z,56.09
2022-11-10T07:21:40.376Z,55.60
2022-11-10T07:22:35.120Z,55.60
2022-11-10T07:23:36.373Z,55.70
2022-11-10T07:24:36.955Z,55.60
2022-11-10T07:25:36.822Z,55.51
2022-11-10T07:26:36.423Z,54.83
2022-11-10T07:27:36.803Z,54.93
2022-11-10T07:28:38.091Z,55.41
2022-11-10T07:29:35.002Z,55.60
2022-11-10T07:30:36.823Z,55.41
2022-11-10T07:31:36.808Z,55.41
2022-11-10T07:32:36.891Z,54.83
2022-11-10T07:33:36.929Z,55.51
2022-11-10T07:34:36.855Z,54.93
2022-11-10T07:35:36.827Z,55.02
2022-11-10T07:36:36.842Z,55.41
2022-11-10T07:37:36.378Z,54.93
2022-11-10T07:38:35.077Z,54.93
2022-11-10T07:39:34.963Z,55.41
2022-11-10T07:40:36.864Z,55.31
2022-11-10T07:41:34.995Z,55.02
2022-11-10T07:42:36.859Z,55.02
2022-11-10T07:43:35.961Z,55.12
2022-11-10T07:44:34.980Z,55.31
2022-11-10T07:45:38.478Z,55.31
2022-11-10T07:46:34.973Z,55.54
2022-11-10T07:47:37.039Z,55.22
2022-11-10T07:48:35.807Z,55.02
2022-11-10T07:49:42.842Z,55.44
2022-11-10T07:51:35.104Z,55.51
2022-11-10T07:52:35.238Z,55.22
2022-11-10T07:53:34.965Z,55.12
2022-11-10T07:54:37.879Z,55.24
2022-11-10T07:55:37.083Z,55.51
2022-11-10T07:56:39.277Z,55.54
2022-11-10T07:57:34.934Z,55.24
2022-11-10T07:58:37.955Z,55.15
2022-11-10T07:59:34.919Z,55.15
2022-11-10T08:00:36.892Z,55.24
2022-11-10T08:01:35.346Z,55.24
2022-11-10T08:02:39.779Z,55.34
2022-11-10T08:03:34.979Z,55.44
2022-11-10T08:04:36.822Z,55.63
2022-11-10T08:05:37.436Z,55.24
2022-11-10T08:06:37.353Z,55.34
2022-11-10T08:07:36.909Z,55.73
2022-11-10T08:08:34.908Z,55.63
2022-11-10T08:09:34.917Z,55.24
2022-11-10T08:10:36.895Z,55.24
2022-11-10T08:11:36.215Z,55.73
2022-11-10T08:12:36.396Z,55.73
2022-11-10T08:13:37.111Z,55.15
2022-11-10T08:14:36.791Z,55.73
2022-11-10T08:15:35.866Z,55.82
2022-11-10T08:16:34.893Z,55.15
2022-11-10T08:17:35.501Z,55.73
2022-11-10T08:18:37.516Z,55.82
2022-11-10T08:19:34.886Z,55.82
2022-11-10T08:20:56.577Z,55.82
2022-11-10T08:21:34.873Z,54.96
2022-11-10T08:22:36.341Z,54.86
2022-11-10T08:23:35.030Z,54.96
2022-11-10T08:24:36.379Z,55.82
2022-11-10T08:25:35.586Z,55.05
2022-11-10T08:26:36.462Z,55.82
2022-11-10T08:27:34.857Z,55.36
2022-11-10T08:28:38.304Z,54.69
2022-11-10T08:29:43.728Z,55.56
2022-11-10T08:30:38.011Z,55.27
2022-11-10T08:31:55.929Z,54.98
2022-11-10T08:32:35.659Z,55.08
2022-11-10T08:33:36.925Z,55.36
2022-11-10T08:34:34.862Z,55.36
2022-11-10T08:35:35.547Z,54.98
2022-11-10T08:36:35.103Z,54.79
2022-11-10T08:37:37.405Z,55.46
2022-11-10T08:38:36.525Z,54.79
2022-11-10T08:39:39.309Z,54.98
2022-11-10T08:40:35.330Z,55.46
2022-11-10T08:41:34.807Z,54.79
2022-11-10T08:42:39.720Z,54.88
2022-11-10T08:43:36.171Z,55.56
2022-11-10T08:45:07.502Z,55.66
2022-11-10T08:45:41.444Z,55.56
2022-11-10T08:46:41.450Z,55.01
2022-11-10T08:47:35.010Z,55.78
2022-11-10T08:48:36.516Z,54.53
2022-11-10T08:49:36.389Z,54.98
2022-11-10T08:50:36.433Z,55.30
2022-11-10T08:51:39.219Z,55.49
2022-11-10T08:52:36.396Z,54.72
2022-11-10T08:53:36.366Z,54.72
2022-11-10T08:54:36.429Z,54.72
2022-11-10T08:55:34.810Z,54.72
2022-11-10T08:56:34.858Z,55.40
2022-11-10T08:57:34.777Z,55.10
2022-11-10T08:58:48.581Z,55.20
2022-11-10T08:59:37.828Z,54.82
2022-11-10T09:00:36.558Z,54.72
2022-11-10T09:01:36.470Z,55.20
2022-11-10T09:02:36.470Z,54.75
2022-11-10T09:03:36.420Z,54.82
2022-11-10T09:04:34.840Z,55.23
2022-11-10T09:05:36.421Z,54.75
2022-11-10T09:06:36.451Z,54.65
2022-11-10T09:07:36.383Z,55.23
2022-11-10T09:08:36.412Z,54.84
2022-11-10T09:10:36.439Z,55.23
2022-11-10T09:11:34.743Z,55.04
2022-11-10T09:12:34.725Z,55.04
2022-11-10T09:13:36.632Z,54.75
2022-11-10T09:14:34.741Z,55.04
2022-11-10T09:15:34.769Z,54.46
2022-11-10T09:16:34.706Z,54.46
2022-11-10T09:17:34.697Z,55.13
2022-11-10T09:18:36.403Z,55.23
2022-11-10T09:19:34.784Z,54.58
2022-11-10T09:20:36.396Z,54.97
2022-11-10T09:21:36.397Z,54.77
2022-11-10T09:22:36.463Z,54.68
2022-11-10T09:23:36.460Z,54.68
2022-11-10T09:24:34.718Z,54.68
2022-11-10T09:25:34.740Z,54.77
2022-11-10T09:26:34.725Z,54.87
2022-11-10T09:27:36.584Z,54.77
2022-11-10T09:28:35.700Z,54.97
2022-11-10T09:29:36.408Z,54.61
2022-11-10T09:30:36.421Z,54.77
2022-11-10T09:31:36.427Z,54.51
2022-11-10T09:32:35.919Z,54.99
2022-11-10T09:33:36.409Z,54.80
2022-11-10T09:34:37.435Z,54.39
2022-11-10T09:35:34.670Z,54.90
2022-11-10T09:36:34.673Z,54.41
2022-11-10T09:37:36.419Z,54.90
2022-11-10T09:38:34.744Z,54.90
2022-11-10T09:39:34.668Z,54.80
2022-11-10T09:40:35.948Z,54.41
2022-11-10T09:41:34.665Z,54.51
2022-11-10T09:42:34.678Z,54.71
2022-11-10T09:43:34.670Z,54.71
2022-11-10T09:44:38.473Z,54.22
2022-11-10T09:45:39.372Z,54.80
2022-11-10T09:46:36.536Z,54.73
2022-11-10T09:47:58.588Z,54.25
2022-11-10T09:48:37.987Z,54.15
2022-11-10T09:49:34.972Z,54.53
2022-11-10T09:50:41.166Z,54.25
2022-11-10T09:51:36.919Z,54.73
2022-11-10T09:52:36.548Z,54.73
2022-11-10T09:53:36.517Z,54.83
2022-11-10T09:54:42.850Z,54.73
2022-11-10T09:55:35.152Z,54.53
2022-11-10T09:56:55.652Z,54.25
2022-11-10T09:57:36.578Z,54.53
2022-11-10T10:00:37.202Z,54.63
2022-11-10T10:01:12.944Z,54.66
2022-11-10T10:02:15.132Z,54.66
2022-11-10T10:13:39.481Z,54.17
2022-11-10T10:14:38.154Z,53.59
2022-11-10T10:15:37.932Z,53.69
2022-11-10T10:16:40.083Z,53.99
2022-11-10T10:17:41.089Z,53.50
2022-11-10T10:18:38.253Z,53.59
2022-11-10T10:19:37.840Z,53.72
2022-11-10T10:20:39.934Z,54.17
2022-11-10T10:21:37.834Z,54.17
2022-11-10T10:22:39.403Z,54.17
2022-11-10T10:24:07.688Z,54.17
2022-11-10T10:24:37.873Z,54.08
2022-11-10T10:25:44.989Z,53.63
2022-11-10T10:26:44.271Z,53.81
2022-11-10T10:27:39.714Z,54.21
2022-11-10T10:28:40.665Z,54.11
2022-11-10T10:29:59.838Z,53.69
2022-11-10T10:30:38.320Z,54.11
2022-11-10T10:31:37.937Z,54.01
2022-11-10T10:32:42.626Z,54.01
2022-11-10T10:33:38.499Z,54.21
2022-11-10T10:34:38.422Z,54.21
2022-11-10T10:35:41.786Z,54.11
2022-11-10T10:36:40.064Z,54.01
2022-11-10T10:37:38.455Z,54.21
2022-11-10T10:38:38.019Z,54.21
2022-11-10T10:39:38.025Z,54.11
2022-11-10T10:40:39.427Z,53.72
2022-11-10T10:41:37.853Z,53.89
2022-11-10T10:42:39.843Z,53.91
2022-11-10T10:43:38.836Z,54.01
2022-11-10T10:44:46.848Z,54.01
2022-11-10T10:45:38.383Z,54.11
2022-11-10T10:46:38.573Z,53.43
2022-11-10T10:47:41.076Z,53.53
2022-11-10T10:48:38.254Z,54.11
2022-11-10T10:49:39.552Z,53.79
2022-11-10T10:50:39.864Z,53.79
2022-11-10T10:51:39.428Z,53.72
2022-11-10T10:52:39.450Z,53.59
2022-11-10T10:53:39.624Z,53.31
2022-11-10T10:54:40.718Z,53.63
2022-11-10T10:55:39.508Z,53.53
2022-11-10T10:56:40.620Z,53.63
2022-11-10T10:57:52.476Z,53.43
2022-11-10T10:58:39.666Z,53.81
2022-11-10T10:59:39.545Z,53.23
2022-11-10T11:00:40.625Z,53.43
2022-11-10T11:01:37.892Z,53.14
2022-11-10T11:02:39.501Z,53.23
2022-11-10T11:03:37.922Z,53.63
2022-11-10T11:04:39.458Z,53.23
2022-11-10T11:05:37.814Z,53.72
2022-11-10T11:06:37.953Z,53.50
2022-11-10T11:07:37.809Z,53.72
2022-11-10T11:08:40.493Z,53.31
2022-11-10T11:09:38.834Z,53.69
2022-11-10T11:10:38.676Z,53.69
2022-11-10T11:11:37.813Z,53.21
2022-11-10T11:12:43.494Z,53.72
2022-11-10T11:13:38.904Z,53.41
2022-11-10T11:14:43.320Z,53.33
2022-11-10T11:16:43.319Z,53.53
2022-11-10T11:17:39.053Z,53.72
2022-11-10T11:18:39.444Z,53.53
2022-11-10T11:19:37.799Z,53.14
2022-11-10T11:21:45.457Z,53.63
2022-11-10T11:22:37.790Z,53.14
2022-11-10T11:23:38.401Z,53.33
2022-11-10T11:24:40.978Z,53.33
2022-11-10T11:25:44.095Z,53.23
2022-11-10T11:26:38.453Z,53.63
2022-11-10T11:27:40.749Z,53.33
2022-11-10T11:28:37.943Z,53.53
2022-11-10T11:29:38.472Z,53.04
2022-11-10T11:30:40.489Z,53.53
2022-11-10T11:31:42.825Z,52.85
2022-11-10T11:32:44.567Z,53.14
2022-11-10T11:33:38.020Z,53.33
2022-11-10T11:34:37.827Z,53.33
2022-11-10T11:35:39.183Z,52.95
2022-11-10T11:36:37.797Z,52.85
2022-11-10T11:37:37.880Z,53.33
2022-11-10T11:38:37.789Z,53.23
2022-11-10T11:39:38.501Z,53.04
2022-11-10T11:40:39.606Z,52.95
2022-11-10T11:41:37.993Z,53.04
2022-11-10T11:42:38.015Z,53.23
2022-11-10T11:43:37.819Z,52.78
2022-11-10T11:44:40.462Z,53.07
2022-11-10T11:45:39.515Z,53.17
2022-11-10T11:46:48.982Z,53.07
2022-11-10T11:47:39.079Z,52.97
2022-11-10T11:48:39.491Z,53.07
2022-11-10T11:49:38.681Z,52.49
2022-11-10T11:50:40.204Z,52.42
2022-11-10T11:51:38.808Z,52.80
2022-11-10T11:52:40.013Z,52.80
2022-11-10T11:53:38.539Z,52.51
2022-11-10T11:54:39.733Z,52.83
2022-11-10T11:55:37.783Z,52.93
2022-11-10T11:56:39.466Z,53.02
2022-11-10T11:57:40.469Z,52.47
2022-11-10T11:58:43.972Z,52.86
2022-11-10T11:59:37.786Z,52.86
2022-11-10T12:00:37.817Z,52.47
2022-11-10T12:01:37.975Z,52.47
2022-11-10T12:02:39.579Z,52.50
2022-11-10T12:03:37.802Z,52.11
2022-11-10T12:04:37.794Z,51.81
2022-11-10T12:05:38.010Z,52.78
2022-11-10T12:06:37.959Z,52.11
2022-11-10T12:07:39.570Z,51.65
2022-11-10T12:08:37.909Z,52.03
2022-11-10T12:09:41.847Z,51.93
2022-11-10T12:10:42.813Z,51.93
2022-11-10T12:11:37.859Z,51.84
2022-11-10T12:12:39.048Z,51.67
2022-11-10T12:13:53.132Z,51.67
2022-11-10T12:14:41.683Z,51.67
2022-11-10T12:15:38.297Z,51.48
2022-11-10T12:16:44.589Z,51.38
2022-11-10T12:17:39.364Z,50.92
2022-11-10T12:18:42.616Z,50.92
2022-11-10T12:20:38.083Z,51.11
2022-11-10T12:21:40.663Z,51.11
2022-11-10T12:22:57.647Z,50.82
2022-11-10T12:23:41.263Z,51.60
2022-11-10T12:24:41.153Z,51.04
2022-11-10T12:25:37.871Z,50.75
2022-11-10T12:26:39.916Z,50.36
2022-11-10T12:27:38.773Z,50.65
2022-11-10T12:28:41.221Z,50.38
2022-11-10T12:29:54.924Z,50.58
2022-11-10T12:30:38.933Z,50.97
2022-11-10T12:31:39.918Z,50.29
2022-11-10T12:32:39.522Z,50.70
2022-11-10T12:33:46.903Z,50.51
2022-11-10T12:34:38.802Z,50.02
2022-11-10T12:35:39.559Z,49.95
2022-11-10T12:36:38.478Z,50.24
2022-11-10T12:37:40.544Z,49.66
2022-11-10T12:38:37.875Z,49.95
2022-11-10T12:39:37.841Z,49.68
2022-11-10T12:40:42.056Z,49.78
2022-11-10T12:41:45.122Z,49.97
2022-11-10T12:42:44.041Z,49.68
2022-11-10T12:43:40.624Z,49.71
2022-11-10T12:44:38.083Z,49.58
2022-11-10T12:45:38.148Z,49.41
2022-11-10T12:46:41.396Z,49.51
2022-11-10T12:47:39.104Z,49.32
2022-11-10T12:48:38.993Z,49.02
2022-11-10T12:49:37.888Z,49.22
2022-11-10T12:50:40.986Z,49.41
2022-11-10T12:51:37.962Z,49.32
2022-11-10T12:52:43.017Z,49.49
2022-11-10T12:53:38.494Z,49.49
2022-11-10T12:54:37.907Z,49.58
2022-11-10T12:55:38.202Z,49.95
2022-11-10T12:56:38.499Z,50.04
2022-11-10T12:57:40.682Z,49.56
2022-11-10T12:58:38.287Z,49.76
2022-11-10T12:59:39.758Z,49.85
2022-11-10T13:00:44.198Z,49.73
2022-11-10T13:01:46.326Z,49.73
2022-11-10T13:02:38.918Z,49.80
2022-11-10T13:03:37.999Z,50.09
2022-11-10T13:04:38.117Z,49.97
2022-11-10T13:05:39.689Z,50.36
2022-11-10T13:06:40.754Z,50.16
2022-11-10T13:07:40.672Z,50.04
2022-11-10T13:08:46.247Z,50.43
2022-11-10T13:09:38.062Z,50.34
2022-11-10T13:10:39.066Z,50.14
2022-11-10T13:11:40.176Z,50.34
2022-11-10T13:12:38.640Z,50.02
2022-11-10T13:13:37.926Z,50.51
2022-11-10T13:14:39.925Z,50.70
2022-11-10T13:15:38.253Z,50.70
2022-11-10T13:16:39.653Z,49.90
2022-11-10T13:17:44.926Z,50.87
2022-11-10T13:18:37.995Z,50.87
2022-11-10T13:19:40.604Z,50.60
2022-11-10T13:20:39.585Z,50.21
2022-11-10T13:21:39.887Z,50.12
2022-11-10T13:22:39.643Z,50.12
2022-11-10T13:23:39.552Z,49.82
2022-11-10T13:24:37.968Z,49.44
2022-11-10T13:25:39.604Z,49.56
2022-11-10T13:26:39.588Z,49.56
2022-11-10T13:27:39.580Z,49.56
2022-11-10T13:28:37.939Z,49.29
2022-11-10T13:29:37.935Z,49.39
2022-11-10T13:30:37.941Z,49.58
2022-11-10T13:31:39.071Z,49.29
2022-11-10T13:32:37.937Z,49.19
2022-11-10T13:33:37.941Z,49.49
2022-11-10T13:34:39.582Z,49.29
2022-11-10T13:35:37.975Z,49.19
2022-11-10T13:36:37.959Z,49.68
2022-11-10T13:37:37.948Z,49.66
2022-11-10T13:38:38.029Z,49.95
2022-11-10T13:39:40.108Z,50.12
2022-11-10T13:40:37.969Z,50.12
2022-11-10T13:41:38.053Z,50.31
2022-11-10T13:42:43.287Z,50.29
2022-11-10T13:43:39.662Z,50.29
2022-11-10T13:44:39.707Z,50.48
2022-11-10T13:45:39.041Z,50.65
2022-11-10T13:46:39.647Z,50.84
2022-11-10T13:47:39.581Z,50.84
2022-11-10T13:48:39.581Z,50.56
2022-11-10T13:49:39.623Z,50.43
2022-11-10T13:50:38.980Z,50.43
2022-11-10T13:51:39.597Z,50.43
2022-11-10T13:52:39.597Z,50.60
2022-11-10T13:53:40.295Z,50.31
2022-11-10T13:54:39.133Z,50.89
2022-11-10T13:55:39.599Z,50.79
2022-11-10T13:56:38.158Z,50.87
2022-11-10T13:57:52.644Z,50.60
2022-11-10T13:58:38.914Z,51.06
2022-11-10T13:59:37.958Z,51.06
2022-11-10T14:00:41.190Z,50.96
2022-11-10T14:01:39.637Z,51.16
2022-11-10T14:02:39.640Z,51.45
2022-11-10T14:03:38.144Z,50.84
2022-11-10T14:04:44.709Z,51.42
2022-11-10T14:05:40.777Z,51.32
2022-11-10T14:06:39.840Z,50.84
2022-11-10T14:07:37.950Z,51.23
2022-11-10T14:08:37.962Z,51.10
2022-11-10T14:09:40.274Z,51.10
2022-11-10T14:10:39.043Z,51.59
2022-11-10T14:11:40.630Z,51.50
2022-11-10T14:12:37.955Z,51.20
2022-11-10T14:13:39.624Z,51.20
2022-11-10T14:14:37.966Z,51.68
2022-11-10T14:15:38.977Z,51.37
2022-11-10T14:16:39.011Z,51.18
2022-11-10T14:17:39.131Z,51.47
2022-11-10T14:18:38.667Z,51.47
2022-11-10T14:19:39.675Z,51.47
2022-11-10T14:20:37.946Z,51.47
2022-11-10T14:21:38.973Z,51.37
2022-11-10T14:22:39.124Z,51.37
2022-11-10T14:23:40.327Z,51.47
2022-11-10T14:24:37.952Z,51.28
2022-11-10T14:25:39.151Z,51.28
2022-11-10T14:26:39.618Z,51.28
2022-11-10T14:27:37.964Z,51.66
2022-11-10T14:28:38.099Z,51.64
2022-11-10T14:29:39.667Z,51.83
2022-11-10T14:30:39.819Z,51.47
2022-11-10T14:31:37.948Z,51.93
2022-11-10T14:32:37.928Z,51.83
2022-11-10T14:33:39.622Z,52.02
2022-11-10T14:34:39.648Z,51.64
2022-11-10T14:35:37.924Z,51.44
2022-11-10T14:36:39.636Z,51.83
2022-11-10T14:37:39.648Z,52.02
2022-11-10T14:38:37.923Z,51.64
2022-11-10T14:39:39.640Z,52.51
2022-11-10T14:40:39.641Z,51.73
2022-11-10T14:41:38.021Z,51.83
2022-11-10T14:42:45.716Z,52.00
2022-11-10T14:43:40.638Z,51.71
2022-11-10T14:44:37.938Z,51.81
2022-11-10T14:45:46.996Z,52.19
2022-11-10T14:47:38.620Z,52.29
2022-11-10T14:48:38.007Z,52.29
2022-11-10T14:49:38.925Z,52.29
2022-11-10T14:50:37.905Z,52.39
2022-11-10T14:51:39.669Z,52.29
2022-11-10T14:52:40.676Z,52.48
2022-11-10T14:53:39.744Z,52.39
2022-11-10T14:54:42.180Z,52.29
2022-11-10T14:55:39.722Z,52.26
2022-11-10T14:56:39.642Z,52.65
2022-11-10T14:57:39.761Z,52.07
2022-11-10T14:58:40.651Z,52.75
2022-11-10T14:59:39.675Z,52.75
2022-11-10T15:00:39.650Z,52.36
2022-11-10T15:01:39.658Z,52.75
2022-11-10T15:02:39.700Z,52.17
2022-11-10T15:03:39.686Z,52.26
2022-11-10T15:04:37.884Z,52.23
2022-11-10T15:05:37.880Z,52.62
2022-11-10T15:06:43.071Z,52.14
2022-11-10T15:07:39.710Z,52.81
2022-11-10T15:08:39.666Z,52.33
2022-11-10T15:09:37.872Z,52.81
2022-11-10T15:10:37.868Z,52.43
2022-11-10T15:11:37.871Z,52.33
2022-11-10T15:12:41.946Z,52.33
2022-11-10T15:13:39.794Z,52.72
2022-11-10T15:14:37.859Z,52.72
2022-11-10T15:15:37.857Z,52.21
2022-11-10T15:16:37.854Z,52.53
2022-11-10T15:17:39.662Z,52.31
2022-11-10T15:18:39.706Z,53.08
2022-11-10T15:19:39.689Z,52.59
2022-11-10T15:20:39.687Z,52.89
2022-11-10T15:21:39.665Z,52.59
2022-11-10T15:22:39.715Z,52.50
2022-11-10T15:23:39.676Z,52.89
2022-11-10T15:24:39.667Z,52.50
2022-11-10T15:25:39.681Z,52.98
2022-11-10T15:26:39.679Z,52.59
2022-11-10T15:27:39.671Z,52.59
2022-11-10T15:28:39.796Z,52.59
2022-11-10T15:29:39.804Z,52.59
2022-11-10T15:30:39.685Z,52.50
2022-11-10T15:31:39.674Z,52.98
2022-11-10T15:32:39.676Z,52.98
2022-11-10T15:33:39.677Z,52.89
2022-11-10T15:34:39.700Z,52.40
2022-11-10T15:35:39.684Z,52.57
2022-11-10T15:36:39.874Z,52.79
2022-11-10T15:37:39.697Z,53.37
2022-11-10T15:38:39.682Z,53.15
2022-11-10T15:39:39.806Z,53.44
2022-11-10T15:40:39.684Z,52.86
2022-11-10T15:41:39.683Z,53.25
2022-11-10T15:42:39.692Z,53.15
2022-11-10T15:43:39.697Z,53.25
2022-11-10T15:44:39.697Z,53.34
2022-11-10T15:45:39.795Z,53.15
2022-11-10T15:46:39.697Z,53.34
2022-11-10T15:47:37.793Z,53.44
2022-11-10T15:48:39.225Z,52.95
2022-11-10T15:49:38.781Z,53.63
2022-11-10T15:50:37.774Z,53.34
2022-11-10T15:51:39.711Z,53.44
2022-11-10T15:52:38.761Z,53.15
2022-11-10T15:53:38.846Z,53.44
2022-11-10T15:54:38.753Z,53.44
2022-11-10T15:55:37.749Z,53.53
2022-11-10T15:56:39.709Z,53.25
2022-11-10T15:57:37.745Z,53.44
2022-11-10T15:58:39.696Z,52.95
2022-11-10T15:59:37.739Z,53.15
2022-11-10T16:00:39.718Z,53.13
2022-11-10T16:12:45.741Z,53.13
2022-11-10T16:13:45.615Z,53.13
2022-11-10T16:14:45.607Z,53.13
2022-11-10T16:15:45.614Z,53.03
2022-11-10T16:16:45.623Z,53.13
2022-11-10T16:17:45.639Z,53.13
2022-11-10T16:18:45.611Z,53.51
2022-11-10T16:19:45.614Z,52.83
2022-11-10T16:20:45.614Z,53.03
2022-11-10T16:21:45.630Z,53.13
2022-11-10T16:22:45.616Z,53.31
2022-11-10T16:23:45.632Z,53.22
2022-11-10T16:24:45.616Z,53.51
2022-11-10T16:25:44.034Z,53.67
2022-11-10T16:26:44.027Z,53.77
2022-11-10T16:27:45.632Z,53.87
2022-11-10T16:28:44.251Z,53.89
2022-11-10T16:29:44.008Z,53.39
2022-11-10T16:30:45.621Z,53.41
2022-11-10T16:31:45.634Z,53.77
2022-11-10T16:32:44.007Z,53.39
2022-11-10T16:33:45.677Z,54.06
2022-11-10T16:34:45.641Z,53.67
2022-11-10T16:35:43.991Z,54.16
2022-11-10T16:36:45.646Z,54.16
2022-11-10T16:37:43.979Z,53.67
2022-11-10T16:38:45.654Z,53.29
2022-11-10T16:39:44.027Z,53.39
2022-11-10T16:40:45.633Z,53.87
2022-11-10T16:41:43.967Z,53.96
2022-11-10T16:42:45.685Z,53.87
2022-11-10T16:43:45.661Z,53.29
2022-11-10T16:44:45.297Z,53.77
2022-11-10T16:45:44.034Z,53.48
2022-11-10T16:46:43.949Z,53.67
2022-11-10T16:47:44.959Z,53.96
2022-11-10T16:48:44.947Z,54.06
2022-11-10T16:49:44.950Z,53.77
2022-11-10T16:50:45.196Z,53.87
2022-11-10T16:51:48.607Z,53.87
2022-11-10T16:52:43.955Z,54.16
2022-11-10T16:53:43.939Z,53.77
2022-11-10T16:54:43.926Z,53.87
2022-11-10T16:55:45.151Z,53.67
2022-11-10T16:56:43.914Z,53.58
2022-11-10T16:57:43.918Z,53.77
2022-11-10T16:58:45.665Z,53.77
2022-11-10T16:59:45.694Z,53.87
2022-11-10T17:00:45.771Z,53.87
2022-11-10T17:01:45.023Z,54.25
2022-11-10T17:02:51.218Z,53.87
2022-11-10T17:03:45.666Z,54.16
2022-11-10T17:04:45.663Z,53.87
2022-11-10T17:05:45.662Z,54.25
2022-11-10T17:06:45.722Z,53.87
2022-11-10T17:07:45.657Z,54.25
2022-11-10T17:08:45.663Z,53.96
2022-11-10T17:09:45.671Z,53.87
2022-11-10T17:10:45.655Z,53.96
2022-11-10T17:11:45.672Z,53.67
2022-11-10T17:12:45.663Z,53.77
2022-11-10T17:13:45.697Z,53.96
2022-11-10T17:14:45.707Z,54.16
2022-11-10T17:15:45.694Z,53.87
2022-11-10T17:16:45.764Z,54.25
2022-11-10T17:17:45.663Z,53.87
2022-11-10T17:18:43.849Z,54.16
2022-11-10T17:19:43.849Z,54.25
2022-11-10T17:20:46.177Z,54.35
2022-11-10T17:21:45.691Z,54.25
2022-11-10T17:22:43.827Z,54.25
2022-11-10T17:23:43.875Z,54.25
2022-11-10T17:24:43.822Z,54.06
2022-11-10T17:25:45.188Z,54.25
2022-11-10T17:26:43.812Z,53.96